createdAt,value
2022-11-21T00:01:19.584Z,92.90
2022-11-21T00:03:47.790Z,92.92
2022-11-21T00:06:16.491Z,93.20
2022-11-21T00:08:44.645Z,93.71
2022-11-21T00:11:12.917Z,93.94
2022-11-21T00:13:41.108Z,93.28
2022-11-21T00:16:10.095Z,93.35
2022-11-21T00:18:39.482Z,93.64
2022-11-21T00:21:07.889Z,93.01
2022-11-21T00:23:35.760Z,92.69
2022-11-21T00:26:07.074Z,93.21
2022-11-21T00:28:35.360Z,93.05
2022-11-21T00:31:03.497Z,93.64
2022-11-21T00:33:31.425Z,93.17
2022-11-21T00:36:06.264Z,93.61
2022-11-21T00:38:34.297Z,93.82
2022-11-21T00:41:02.281Z,93.61
2022-11-21T00:43:30.542Z,93.04
2022-11-21T00:46:01.297Z,92.92
2022-11-21T00:48:30.572Z,92.78
2022-11-21T00:51:01.099Z,93.32
2022-11-21T00:53:29.185Z,93.19
2022-11-21T00:55:57.558Z,93.05
2022-11-21T00:58:25.481Z,92.76
2022-11-21T01:00:53.712Z,92.48
2022-11-21T01:03:21.779Z,92.92
2022-11-21T01:05:49.855Z,93.36
2022-11-21T01:08:19.120Z,93.16
2022-11-21T01:10:46.938Z,93.24
2022-11-21T01:13:14.958Z,93.14
2022-11-21T01:15:42.958Z,92.88
2022-11-21T01:18:10.987Z,93.09
2022-11-21T01:20:39.981Z,93.25
2022-11-21T01:23:07.880Z,93.49
2022-11-21T01:25:37.629Z,93.15
2022-11-21T01:28:05.734Z,92.78
2022-11-21T01:30:33.790Z,93.12
2022-11-21T01:33:01.844Z,92.95
2022-11-21T01:35:29.792Z,92.78
2022-11-21T01:37:57.685Z,93.07
2022-11-21T01:40:25.867Z,93.04
2022-11-21T01:42:55.847Z,92.96
2022-11-21T01:45:42.266Z,93.46
2022-11-21T01:48:10.644Z,93.08
2022-11-21T01:50:38.804Z,93.01
2022-11-21T01:53:06.973Z,93.75
2022-11-21T01:55:35.760Z,93.93
2022-11-21T01:58:07.754Z,93.95
2022-11-21T02:00:38.384Z,94.37
2022-11-21T02:03:08.696Z,94.13
2022-11-21T02:05:39.452Z,93.94
2022-11-21T02:08:09.912Z,93.59
2022-11-21T02:10:40.207Z,93.91
2022-11-21T02:13:10.165Z,94.13
2022-11-21T02:15:38.029Z,94.42
2022-11-21T02:18:07.120Z,94.09
2022-11-21T02:20:35.147Z,93.65
2022-11-21T02:23:07.317Z,93.88
2022-11-21T02:25:38.033Z,94.03
2022-11-21T02:28:07.828Z,94.11
2022-11-21T02:30:37.908Z,93.45
2022-11-21T02:33:06.616Z,93.45
2022-11-21T02:35:35.124Z,93.85
2022-11-21T02:38:05.045Z,93.43
2022-11-21T02:40:35.048Z,93.77
2022-11-21T02:43:07.500Z,93.48
2022-11-21T02:45:37.172Z,93.96
2022-11-21T02:48:05.247Z,94.24
2022-11-21T02:50:36.978Z,94.24
2022-11-21T02:53:06.024Z,94.04
2022-11-21T02:55:34.365Z,94.25
2022-11-21T02:58:05.104Z,93.48
2022-11-21T03:00:35.973Z,94.17
2022-11-21T03:03:04.103Z,93.71
2022-11-21T03:05:32.120Z,93.35
2022-11-21T03:08:03.465Z,93.83
2022-11-21T03:10:31.612Z,93.31
2022-11-21T03:13:01.804Z,93.21
2022-11-21T03:15:30.503Z,93.26
2022-11-21T03:18:01.106Z,93.10
2022-11-21T03:20:29.065Z,92.91
2022-11-21T03:22:57.309Z,93.34
2022-11-21T03:25:25.652Z,93.15
2022-11-21T03:27:54.355Z,92.81
2022-11-21T03:30:23.466Z,93.67
2022-11-21T03:32:51.682Z,93.97
2022-11-21T03:35:21.162Z,93.22
2022-11-21T03:37:49.304Z,93.81
2022-11-21T03:40:17.379Z,93.68
2022-11-21T03:42:45.416Z,93.59
2022-11-21T03:45:13.408Z,93.78
2022-11-21T03:47:42.075Z,93.43
2022-11-21T03:50:10.697Z,93.44
2022-11-21T03:52:39.959Z,93.09
2022-11-21T03:55:08.463Z,93.19
2022-11-21T03:57:36.350Z,93.71
2022-11-21T04:00:04.702Z,93.65
2022-11-21T04:02:32.681Z,93.94
2022-11-21T04:05:00.642Z,94.73
2022-11-21T04:07:29.930Z,94.40
2022-11-21T04:10:02.014Z,94.23
2022-11-21T04:12:30.280Z,94.17
2022-11-21T04:14:59.236Z,94.26
2022-11-21T04:17:27.324Z,94.91
2022-11-21T04:19:55.408Z,94.64
2022-11-21T04:22:23.306Z,95.08
2022-11-21T04:24:51.386Z,94.82
2022-11-21T04:27:20.784Z,94.90
2022-11-21T04:29:50.092Z,95.05
2022-11-21T04:32:18.306Z,95.07
2022-11-21T04:34:46.618Z,94.96
2022-11-21T04:37:15.037Z,95.42
2022-11-21T04:39:43.142Z,95.43
2022-11-21T04:42:11.193Z,95.16
2022-11-21T04:44:40.856Z,95.61
2022-11-21T04:47:08.934Z,95.35
2022-11-21T04:49:36.983Z,94.97
2022-11-21T04:52:05.209Z,95.17
2022-11-21T04:54:33.424Z,95.64
2022-11-21T04:57:01.476Z,95.47
2022-11-21T04:59:29.490Z,95.71
2022-11-21T05:01:59.271Z,95.78
2022-11-21T05:04:27.738Z,95.25
2022-11-21T05:06:56.001Z,95.30
2022-11-21T05:09:23.925Z,95.61
2022-11-21T05:12:09.546Z,96.12
2022-11-21T05:14:37.695Z,95.63
2022-11-21T05:17:06.947Z,95.85
2022-11-21T05:19:34.791Z,95.72
2022-11-21T05:22:02.706Z,95.33
2022-11-21T05:24:30.843Z,95.42
2022-11-21T05:26:58.815Z,95.86
2022-11-21T05:29:28.364Z,95.84
2022-11-21T05:31:56.376Z,95.51
2022-11-21T05:34:25.903Z,95.72
2022-11-21T05:36:57.100Z,95.75
2022-11-21T05:39:25.236Z,95.78
2022-11-21T05:41:56.185Z,96.14
2022-11-21T05:44:27.286Z,95.73
2022-11-21T05:46:55.357Z,95.33
2022-11-21T05:49:23.185Z,95.55
2022-11-21T05:51:52.485Z,95.34
2022-11-21T05:54:20.324Z,95.03
2022-11-21T05:56:48.414Z,95.76
2022-11-21T05:59:16.442Z,95.27
2022-11-21T06:02:01.772Z,95.90
2022-11-21T06:04:30.330Z,95.62
2022-11-21T06:07:00.783Z,96.27
2022-11-21T06:09:28.719Z,95.99
2022-11-21T06:11:56.874Z,96.14
2022-11-21T06:14:24.914Z,96.09
2022-11-21T06:16:56.398Z,96.55
2022-11-21T06:19:24.660Z,96.48
2022-11-21T06:21:53.492Z,95.94
2022-11-21T06:24:23.045Z,96.05
2022-11-21T06:26:51.035Z,96.33
2022-11-21T06:29:22.177Z,96.59
2022-11-21T06:31:56.114Z,96.31
2022-11-21T06:34:26.986Z,96.00
2022-11-21T06:36:58.216Z,95.91
2022-11-21T06:39:27.866Z,96.28
2022-11-21T06:41:56.189Z,96.55
2022-11-21T06:44:24.316Z,96.05
2022-11-21T06:46:52.165Z,96.83
2022-11-21T06:49:22.066Z,97.02
2022-11-21T06:51:50.566Z,96.49
2022-11-21T06:54:22.765Z,96.82
2022-11-21T06:56:55.507Z,97.24
2022-11-21T06:59:23.573Z,97.10
2022-11-21T07:01:53.034Z,97.11
2022-11-21T07:04:21.456Z,97.21
2022-11-21T07:06:50.114Z,97.03
2022-11-21T07:09:35.887Z,96.62
2022-11-21T07:12:19.491Z,97.29
2022-11-21T07:14:48.926Z,97.35
2022-11-21T07:17:17.440Z,97.55
2022-11-21T07:19:45.529Z,97.61
2022-11-21T07:22:13.510Z,97.83
2022-11-21T07:24:41.513Z,97.80
2022-11-21T07:27:10.964Z,97.44
2022-11-21T07:29:38.845Z,97.80
2022-11-21T07:32:09.139Z,98.04
2022-11-21T07:34:37.372Z,97.22
2022-11-21T07:37:05.523Z,98.00
2022-11-21T07:39:33.806Z,97.62
2022-11-21T07:42:01.684Z,97.79
2022-11-21T07:44:31.197Z,97.79
2022-11-21T07:46:59.192Z,97.60
2022-11-21T07:49:27.946Z,97.67
2022-11-21T07:51:56.408Z,97.05
2022-11-21T07:54:24.378Z,96.71
2022-11-21T07:56:52.266Z,97.13
2022-11-21T07:59:20.206Z,96.72
2022-11-21T08:01:49.660Z,96.47
2022-11-21T08:04:18.726Z,96.48
2022-11-21T08:06:47.842Z,96.26
2022-11-21T08:09:15.803Z,96.21
2022-11-21T08:11:44.098Z,96.00
2022-11-21T08:14:12.073Z,96.09
2022-11-21T08:16:40.165Z,96.33
2022-11-21T08:19:09.498Z,96.33
2022-11-21T08:21:37.531Z,97.11
2022-11-21T08:24:07.634Z,96.19
2022-11-21T08:26:35.485Z,96.43
2022-11-21T08:29:03.608Z,95.78
2022-11-21T08:31:31.690Z,95.88
2022-11-21T08:33:59.891Z,95.71
2022-11-21T08:36:29.309Z,95.76
2022-11-21T08:38:57.229Z,95.13
2022-11-21T08:41:43.031Z,95.04
2022-11-21T08:44:14.236Z,94.81
2022-11-21T08:46:42.602Z,94.53
2022-11-21T08:49:10.951Z,93.69
2022-11-21T08:51:40.321Z,93.70
2022-11-21T08:54:09.497Z,93.22
2022-11-21T08:56:37.570Z,93.46
2022-11-21T08:59:05.600Z,93.38
2022-11-21T09:01:33.632Z,93.59
2022-11-21T09:04:01.661Z,93.62
2022-11-21T09:06:29.507Z,93.11
2022-11-21T09:08:59.164Z,92.56
2022-11-21T09:11:27.213Z,92.41
2022-11-21T09:14:11.922Z,92.83
2022-11-21T09:17:01.844Z,93.09
2022-11-21T09:19:30.692Z,93.35
2022-11-21T09:21:58.705Z,93.78
2022-11-21T09:24:28.183Z,93.77
2022-11-21T09:26:56.186Z,94.31
2022-11-21T09:29:24.247Z,93.78
2022-11-21T09:31:52.160Z,93.88
2022-11-21T09:34:20.510Z,93.71
2022-11-21T09:36:48.509Z,93.90
2022-11-21T09:39:17.355Z,93.95
2022-11-21T09:41:52.943Z,94.17
2022-11-21T09:44:32.405Z,94.40
2022-11-21T09:47:03.397Z,94.50
2022-11-21T09:49:36.965Z,94.53
2022-11-21T09:52:05.624Z,94.57
2022-11-21T09:54:35.446Z,94.54
2022-11-21T09:57:04.988Z,94.42
2022-11-21T09:59:34.912Z,94.55
2022-11-21T10:02:03.094Z,94.51
2022-11-21T10:04:32.293Z,94.99
2022-11-21T10:07:04.119Z,94.72
2022-11-21T10:09:41.293Z,94.92
2022-11-21T10:12:33.992Z,94.88
2022-11-21T10:15:09.097Z,95.08
2022-11-21T10:17:46.614Z,94.89
2022-11-21T10:20:33.263Z,95.31
2022-11-21T10:23:12.139Z,95.55
2022-11-21T10:25:46.962Z,95.28
2022-11-21T10:28:20.274Z,95.73
2022-11-21T10:30:49.530Z,95.93
2022-11-21T10:33:21.358Z,95.83
2022-11-21T10:35:52.401Z,95.64
2022-11-21T10:38:22.733Z,96.00
2022-11-21T10:40:54.143Z,96.02
2022-11-21T10:43:52.226Z,95.86
2022-11-21T10:46:22.073Z,95.93
2022-11-21T10:48:57.190Z,96.26
2022-11-21T10:51:36.957Z,95.55
2022-11-21T10:54:26.823Z,95.28
2022-11-21T10:56:57.997Z,95.72
2022-11-21T10:59:31.592Z,95.63
2022-11-21T11:02:00.361Z,95.25
2022-11-21T11:04:32.121Z,95.17
2022-11-21T11:07:20.693Z,95.29
2022-11-21T11:09:49.396Z,95.18
2022-11-21T11:12:52.708Z,95.31
2022-11-21T11:15:23.366Z,94.76
2022-11-21T11:17:53.369Z,94.29
2022-11-21T11:20:30.983Z,93.34
2022-11-21T11:22:59.132Z,92.21
2022-11-21T11:25:27.136Z,90.66
2022-11-21T11:27:56.164Z,90.07
2022-11-21T11:30:26.743Z,89.00
2022-11-21T11:32:54.730Z,88.62
2022-11-21T11:35:24.116Z,88.13
2022-11-21T11:37:59.683Z,88.10
2022-11-21T11:40:30.745Z,89.67
2022-11-21T11:43:21.212Z,90.08
2022-11-21T11:46:24.561Z,89.76
2022-11-21T11:49:19.225Z,89.06
2022-11-21T11:51:44.979Z,85.38
2022-11-21T11:54:17.769Z,84.42
2022-11-21T11:56:47.184Z,85.15
2022-11-21T11:59:19.093Z,84.85
2022-11-21T12:01:51.890Z,85.51
2022-11-21T12:04:20.957Z,85.88
2022-11-21T12:07:52.735Z,85.04
2022-11-21T12:09:46.668Z,84.83
2022-11-21T12:12:18.372Z,85.21
2022-11-21T12:15:13.766Z,85.65
2022-11-21T12:17:47.053Z,86.06
2022-11-21T12:20:19.384Z,85.42
2022-11-21T12:22:50.186Z,85.31
2022-11-21T12:25:20.634Z,84.99
2022-11-21T12:27:52.803Z,86.17
2022-11-21T12:30:39.627Z,85.01
2022-11-21T12:33:13.886Z,84.72
2022-11-21T12:36:16.814Z,85.27
2022-11-21T12:39:04.348Z,86.71
2022-11-21T12:41:54.743Z,85.56
2022-11-21T12:44:31.026Z,85.90
2022-11-21T12:47:06.641Z,87.46
2022-11-21T12:50:00.486Z,88.02
2022-11-21T12:52:49.051Z,88.33
2022-11-21T12:55:35.164Z,88.95
2022-11-21T12:58:15.834Z,88.90
2022-11-21T13:00:59.133Z,89.53
2022-11-21T13:03:39.125Z,89.44
2022-11-21T13:06:15.159Z,89.60
2022-11-21T13:08:43.702Z,89.98
2022-11-21T13:11:35.245Z,90.58
2022-11-21T13:14:06.110Z,91.58
2022-11-21T13:16:38.249Z,91.55
2022-11-21T13:19:14.024Z,90.72
2022-11-21T13:21:44.460Z,90.76
2022-11-21T13:24:12.852Z,90.87
2022-11-21T13:26:53.251Z,91.69
2022-11-21T13:29:21.319Z,91.32
2022-11-21T13:31:49.470Z,91.35
2022-11-21T13:34:41.335Z,91.12
2022-11-21T13:37:10.760Z,92.26
2022-11-21T13:39:39.270Z,92.23
2022-11-21T13:42:26.406Z,92.08
2022-11-21T13:44:54.765Z,89.80
2022-11-21T13:47:32.767Z,88.92
2022-11-21T13:50:05.407Z,88.29
2022-11-21T13:52:39.163Z,87.52
2022-11-21T13:55:26.826Z,87.19
2022-11-21T13:58:01.389Z,87.52
2022-11-21T14:00:32.356Z,87.27
2022-11-21T14:03:10.642Z,87.17
2022-11-21T14:05:48.235Z,87.77
2022-11-21T14:08:20.876Z,88.30
2022-11-21T14:10:49.981Z,88.59
2022-11-21T14:13:27.927Z,88.18
2022-11-21T14:16:09.026Z,88.85
2022-11-21T14:18:39.697Z,89.48
2022-11-21T14:21:09.093Z,89.58
2022-11-21T14:23:44.223Z,89.41
2022-11-21T14:26:13.797Z,89.34
2022-11-21T14:28:41.816Z,89.48
2022-11-21T14:31:10.764Z,89.68
2022-11-21T14:33:39.188Z,90.10
2022-11-21T14:36:08.266Z,89.58
2022-11-21T14:38:42.277Z,89.77
2022-11-21T14:41:23.823Z,89.87
2022-11-21T14:43:52.231Z,90.81
2022-11-21T14:46:21.456Z,91.05
2022-11-21T14:48:49.456Z,91.63
2022-11-21T14:51:18.830Z,91.95
2022-11-21T14:53:49.259Z,92.08
2022-11-21T14:56:21.409Z,92.94
2022-11-21T14:58:49.663Z,93.11
2022-11-21T15:01:20.906Z,93.56
2022-11-21T15:03:55.658Z,93.91
2022-11-21T15:06:24.222Z,94.31
2022-11-21T15:11:47.568Z,94.63
2022-11-21T15:14:20.966Z,95.03
2022-11-21T15:16:51.083Z,95.32
2022-11-21T15:19:23.529Z,95.03
2022-11-21T15:21:52.475Z,95.67
2022-11-21T15:24:29.619Z,95.67
2022-11-21T15:26:57.737Z,95.94
2022-11-21T15:29:25.925Z,96.11
2022-11-21T15:32:15.728Z,96.44
2022-11-21T15:34:45.223Z,96.48
2022-11-21T15:37:15.549Z,96.50
2022-11-21T15:39:45.442Z,96.91
2022-11-21T15:42:29.409Z,96.58
2022-11-21T15:44:59.273Z,96.70
2022-11-21T15:47:27.205Z,96.60
2022-11-21T15:49:55.808Z,96.50
2022-11-21T15:52:24.245Z,96.39
2022-11-21T15:54:53.704Z,96.63
2022-11-21T15:57:22.568Z,96.52
2022-11-21T15:59:50.643Z,96.52
2022-11-21T16:02:18.487Z,96.20
2022-11-21T16:04:47.029Z,96.23
2022-11-21T16:07:14.960Z,96.25
2022-11-21T16:09:44.778Z,96.29
2022-11-21T16:12:14.048Z,95.99
2022-11-21T16:14:42.391Z,96.35
2022-11-21T16:17:10.271Z,96.55
2022-11-21T16:19:38.167Z,96.60
2022-11-21T16:22:06.181Z,96.72
2022-11-21T16:24:37.514Z,96.75
2022-11-21T16:27:06.307Z,96.76
2022-11-21T16:29:36.275Z,97.00
2022-11-21T16:32:05.156Z,96.84
2022-11-21T16:34:36.120Z,97.06
2022-11-21T16:37:07.548Z,97.12
2022-11-21T16:39:36.309Z,97.23
2022-11-21T16:42:05.056Z,96.90
2022-11-21T16:44:32.903Z,97.10
2022-11-21T16:47:06.798Z,97.40
2022-11-21T16:49:36.608Z,97.37
2022-11-21T16:52:04.933Z,97.49
2022-11-21T16:54:32.952Z,97.83
2022-11-21T16:57:01.032Z,97.55
2022-11-21T16:59:29.803Z,97.91
2022-11-21T17:01:58.017Z,97.51
2022-11-21T17:04:27.482Z,97.37
2022-11-21T17:06:56.001Z,97.49
2022-11-21T17:09:23.856Z,97.25
2022-11-21T17:11:51.765Z,97.18
2022-11-21T17:14:19.793Z,97.10
2022-11-21T17:16:52.624Z,96.91
2022-11-21T17:19:27.480Z,96.83
2022-11-21T17:22:00.240Z,97.25
2022-11-21T17:24:28.754Z,96.97
2022-11-21T17:27:00.427Z,96.65
2022-11-21T17:29:28.721Z,96.30
2022-11-21T17:31:56.885Z,95.90
2022-11-21T17:34:31.248Z,96.01
2022-11-21T17:37:02.483Z,95.72
2022-11-21T17:39:30.721Z,95.72
2022-11-21T17:42:01.997Z,95.63
2022-11-21T17:44:30.405Z,95.75
2022-11-21T17:46:59.224Z,95.86
2022-11-21T17:49:29.908Z,95.92
2022-11-21T17:51:58.175Z,95.77
2022-11-21T17:54:27.697Z,95.75
2022-11-21T17:56:57.126Z,95.55
2022-11-21T17:59:25.235Z,95.13
2022-11-21T18:01:53.352Z,95.02
2022-11-21T18:04:21.658Z,94.82
2022-11-21T18:06:50.664Z,94.77
2022-11-21T18:09:19.030Z,94.56
2022-11-21T18:11:48.536Z,94.77
2022-11-21T18:14:16.670Z,94.26
2022-11-21T18:16:50.895Z,93.88
2022-11-21T18:19:21.213Z,93.90
2022-11-21T18:21:49.977Z,93.54
2022-11-21T18:24:18.113Z,93.97
2022-11-21T18:26:47.168Z,94.18
2022-11-21T18:32:04.885Z,94.58
2022-11-21T18:34:33.291Z,94.87
2022-11-21T18:37:01.136Z,94.60
2022-11-21T18:39:29.365Z,95.08
2022-11-21T18:41:57.625Z,94.38
2022-11-21T18:44:27.497Z,94.34
2022-11-21T18:46:55.465Z,94.67
2022-11-21T18:49:23.513Z,94.73
2022-11-21T18:51:51.404Z,94.78
2022-11-21T18:54:19.391Z,94.44
2022-11-21T18:56:47.679Z,94.42
2022-11-21T18:59:16.284Z,93.80
2022-11-21T19:01:46.192Z,93.89
2022-11-21T19:04:14.484Z,93.78
2022-11-21T19:06:42.447Z,93.67
2022-11-21T19:09:11.745Z,93.89
2022-11-21T19:11:41.084Z,93.96
2022-11-21T19:14:09.044Z,93.64
2022-11-21T19:16:37.221Z,93.36
2022-11-21T19:21:59.049Z,93.00
2022-11-21T19:24:27.057Z,93.27
2022-11-21T19:26:55.072Z,93.10
2022-11-21T19:29:23.382Z,92.79
2022-11-21T19:31:51.547Z,92.56
2022-11-21T19:34:21.022Z,92.66
2022-11-21T19:36:49.299Z,92.58
2022-11-21T19:39:18.196Z,92.47
2022-11-21T19:41:48.674Z,92.28
2022-11-21T19:44:17.134Z,92.35
2022-11-21T19:46:45.601Z,91.77
2022-11-21T19:49:14.142Z,91.07
2022-11-21T19:51:43.856Z,90.99
2022-11-21T19:54:20.150Z,91.12
2022-11-21T19:56:57.482Z,90.92
2022-11-21T19:59:25.708Z,90.37
2022-11-21T20:01:54.482Z,90.07
2022-11-21T20:04:22.681Z,90.33
2022-11-21T20:06:52.430Z,89.98
2022-11-21T20:09:21.688Z,89.94
2022-11-21T20:11:50.728Z,89.83
2022-11-21T20:14:22.270Z,90.09
2022-11-21T20:16:52.740Z,90.01
2022-11-21T20:19:22.638Z,89.86
2022-11-21T20:21:52.431Z,90.05
2022-11-21T20:24:22.825Z,89.96
2022-11-21T20:26:51.876Z,89.82
2022-11-21T20:29:20.332Z,89.51
2022-11-21T20:31:49.364Z,89.54
2022-11-21T20:34:17.374Z,89.59
2022-11-21T20:36:46.942Z,89.71
2022-11-21T20:39:17.481Z,89.04
2022-11-21T20:41:46.670Z,89.06
2022-11-21T20:47:10.418Z,88.28
2022-11-21T20:49:43.530Z,87.77
2022-11-21T20:55:01.297Z,86.08
2022-11-21T20:57:32.548Z,86.01
2022-11-21T21:00:02.806Z,86.02
2022-11-21T21:02:30.768Z,85.75
2022-11-21T21:04:58.746Z,85.42
2022-11-21T21:07:26.917Z,85.96
2022-11-21T21:09:57.812Z,85.66
2022-11-21T21:12:28.842Z,85.41
2022-11-21T21:14:56.780Z,85.48
2022-11-21T21:17:25.155Z,85.57
2022-11-21T21:19:56.676Z,85.39
2022-11-21T21:22:24.787Z,85.28
2022-11-21T21:24:52.713Z,85.22
2022-11-21T21:27:20.562Z,84.98
2022-11-21T21:29:55.491Z,84.85
2022-11-21T21:32:24.217Z,85.13
2022-11-21T21:34:55.158Z,84.82
2022-11-21T21:37:23.791Z,85.42
2022-11-21T21:39:52.169Z,85.36
2022-11-21T21:42:28.009Z,85.09
2022-11-21T21:44:58.117Z,85.78
2022-11-21T21:47:29.970Z,85.54
2022-11-21T21:49:58.074Z,85.29
2022-11-21T21:52:28.782Z,85.29
2022-11-21T21:54:57.251Z,85.21
2022-11-21T21:57:25.277Z,85.94
2022-11-21T21:59:53.102Z,85.62
2022-11-21T22:02:22.485Z,85.87
2022-11-21T22:04:52.253Z,86.32
2022-11-21T22:07:20.815Z,86.37
2022-11-21T22:09:48.857Z,86.33
2022-11-21T22:12:16.963Z,86.15
2022-11-21T22:14:46.104Z,86.21
2022-11-21T22:17:13.980Z,85.95
2022-11-21T22:19:45.985Z,86.50
2022-11-21T22:22:14.123Z,86.53
2022-11-21T22:24:42.125Z,87.08
2022-11-21T22:27:10.226Z,86.88
2022-11-21T22:29:38.068Z,87.26
2022-11-21T22:32:06.432Z,86.84
2022-11-21T22:34:34.414Z,86.49
2022-11-21T22:37:03.792Z,85.92
2022-11-21T22:39:33.041Z,85.39
2022-11-21T22:42:00.995Z,84.41
2022-11-21T22:44:29.115Z,83.39
2022-11-21T22:46:57.413Z,82.72
2022-11-21T22:49:25.365Z,80.74
2022-11-21T22:51:53.312Z,80.44
2022-11-21T22:54:22.840Z,78.64
2022-11-21T22:56:50.709Z,78.15
2022-11-21T22:59:18.796Z,77.66
2022-11-21T23:01:46.688Z,77.28
2022-11-21T23:04:17.866Z,76.89
2022-11-21T23:06:46.271Z,76.52
2022-11-21T23:09:14.361Z,76.39
2022-11-21T23:11:43.649Z,75.61
2022-11-21T23:14:13.561Z,75.91
2022-11-21T23:16:41.784Z,75.38
2022-11-21T23:19:09.775Z,74.83
2022-11-21T23:21:37.750Z,75.87
2022-11-21T23:24:06.115Z,76.23
2022-11-21T23:26:33.979Z,77.20
2022-11-21T23:29:08.241Z,78.09
2022-11-21T23:31:37.203Z,78.63
2022-11-21T23:34:05.374Z,80.07
2022-11-21T23:36:33.581Z,80.10
2022-11-21T23:39:01.500Z,80.45
2022-11-21T23:41:29.417Z,80.94
2022-11-21T23:43:59.673Z,81.20
2022-11-21T23:46:29.348Z,81.87
2022-11-21T23:48:57.332Z,82.27
2022-11-21T23:51:26.662Z,81.85
2022-11-21T23:53:54.541Z,83.79
2022-11-21T23:56:22.501Z,84.01
2022-11-21T23:58:50.540Z,84.12
